createdAt,value
2023-03-08T00:01:23.033Z,0
2023-03-08T00:06:24.672Z,0
2023-03-08T00:11:26.085Z,0
2023-03-08T00:16:27.629Z,0
2023-03-08T00:21:29.313Z,0
2023-03-08T00:26:30.818Z,0
2023-03-08T00:31:32.329Z,0
2023-03-08T00:36:33.838Z,0.88715
2023-03-08T00:41:35.460Z,0
2023-03-08T00:46:37.200Z,0
2023-03-08T00:51:38.727Z,0
2023-03-08T00:56:40.180Z,0
2023-03-08T01:01:41.724Z,0
2023-03-08T01:06:43.351Z,0
2023-03-08T01:11:44.977Z,0
2023-03-08T01:16:46.495Z,0
2023-03-08T01:21:48.011Z,0.88715
2023-03-08T01:26:49.486Z,0
2023-03-08T01:31:51.036Z,0
2023-03-08T01:36:52.563Z,0.88715
2023-03-08T01:41:54.096Z,0
2023-03-08T01:46:55.608Z,0
2023-03-08T01:51:57.105Z,0
2023-03-08T01:56:58.691Z,0
2023-03-08T02:02:00.209Z,0
2023-03-08T02:07:01.713Z,0
2023-03-08T02:12:03.322Z,0
2023-03-08T02:17:04.756Z,0
2023-03-08T02:22:06.227Z,0.88715
2023-03-08T02:27:07.812Z,0
2023-03-08T02:32:09.335Z,0
2023-03-08T02:37:10.823Z,0
2023-03-08T02:42:12.294Z,0
2023-03-08T02:47:13.850Z,0
2023-03-08T02:52:15.382Z,0
2023-03-08T02:57:16.878Z,0
2023-03-08T03:02:18.331Z,0
2023-03-08T03:07:19.809Z,0
2023-03-08T03:12:21.336Z,0
2023-03-08T03:17:22.941Z,0
2023-03-08T03:22:24.406Z,0
2023-03-08T03:27:25.878Z,0.88715
2023-03-08T03:32:27.645Z,0.88715
2023-03-08T03:37:29.185Z,0.88715
2023-03-08T03:42:30.749Z,0.88715
2023-03-08T03:47:32.215Z,0
2023-03-08T03:52:33.745Z,2.3237
2023-03-08T03:57:35.238Z,6.9711
2023-03-08T04:02:36.807Z,10.82555
2023-03-08T04:07:38.328Z,15.0489
2023-03-08T04:12:39.828Z,26.24335
2023-03-08T04:17:41.290Z,23.256
2023-03-08T04:22:42.803Z,33.47305
2023-03-08T04:27:44.367Z,63.31225
2023-03-08T04:32:45.847Z,84.9082
2023-03-08T04:37:49.664Z,102.26365
2023-03-08T04:42:51.514Z,118.9916
2023-03-08T04:47:52.995Z,135.95915
2023-03-08T04:52:54.458Z,182.21255
2023-03-08T04:57:55.960Z,233.2751
2023-03-08T05:02:57.480Z,264.5899
2023-03-08T05:07:58.990Z,296.5322
2023-03-08T05:13:00.522Z,338.45195
2023-03-08T05:18:02.076Z,374.41415
2023-03-08T05:23:03.533Z,408.5147
2023-03-08T05:28:05.156Z,413.99305
2023-03-08T05:33:06.699Z,431.2002
2023-03-08T05:38:08.185Z,442.1189
2023-03-08T05:43:09.710Z,453.6271
2023-03-08T05:48:11.120Z,472.42015
2023-03-08T05:53:12.638Z,473.54585
2023-03-08T05:58:14.133Z,506.0415
2023-03-08T06:03:15.730Z,537.08055
2023-03-08T06:08:17.927Z,566.9976
2023-03-08T06:13:19.477Z,395.18655
2023-03-08T06:18:21.078Z,338.0316
2023-03-08T06:23:22.554Z,400.81135
2023-03-08T06:28:24.096Z,399.7102
2023-03-08T06:33:25.569Z,272.0856
2023-03-08T06:38:29.460Z,192.30215
2023-03-08T06:43:31.602Z,230.202
2023-03-08T06:48:33.118Z,233.1342
2023-03-08T06:53:34.665Z,224.85295
2023-03-08T06:58:36.128Z,283.1146
2023-03-08T07:03:37.608Z,264.7076
2023-03-08T07:08:39.104Z,326.12205
2023-03-08T07:13:40.618Z,384.8059
2023-03-08T07:18:42.167Z,502.19445
2023-03-08T07:23:43.772Z,701.4904
2023-03-08T07:28:45.380Z,659.03445
2023-03-08T07:33:46.882Z,598.3921
2023-03-08T07:38:48.384Z,624.5043
2023-03-08T07:43:49.872Z,670.40225
2023-03-08T07:48:53.038Z,830.52015
2023-03-08T07:53:56.268Z,637.2411
2023-03-08T07:58:57.813Z,669.9059
2023-03-08T08:03:59.487Z,964.8364
2023-03-08T08:09:01.063Z,1084.83365
2023-03-08T08:14:02.614Z,1055.6011
2023-03-08T08:19:04.090Z,875.36655
2023-03-08T08:24:05.657Z,683.0797
2023-03-08T08:29:07.130Z,568.6785
2023-03-08T08:34:08.606Z,594.6081
2023-03-08T08:39:10.141Z,638.2296
2023-03-08T08:44:11.793Z,677.6032
2023-03-08T08:49:13.366Z,612.2736
2023-03-08T08:54:14.916Z,633.18505
2023-03-08T08:59:16.450Z,730.3184
2023-03-08T09:04:18.186Z,1020.46985
2023-03-08T09:09:19.745Z,1055.04775
2023-03-08T09:14:21.427Z,1096.8229
2023-03-08T09:19:23.134Z,1152.7817
2023-03-08T09:24:24.721Z,836.07315
2023-03-08T09:29:26.338Z,1190.98975
2023-03-08T09:34:27.788Z,1228.1249
2023-03-08T09:39:29.253Z,1062.64315
2023-03-08T09:44:30.735Z,1275.38445
2023-03-08T09:49:32.324Z,1267.91885
2023-03-08T09:54:34.268Z,1234.0922
2023-03-08T09:59:35.720Z,715.63655
2023-03-08T10:04:37.259Z,1313.35845
2023-03-08T10:09:38.826Z,1302.8448
2023-03-08T10:14:40.399Z,1313.8015
2023-03-08T10:19:41.843Z,1340.09815
2023-03-08T10:24:43.396Z,1276.8888
2023-03-08T10:29:45.010Z,1366.87585
2023-03-08T10:34:46.595Z,1393.895
2023-03-08T10:39:48.211Z,1436.38525
2023-03-08T10:44:49.901Z,1499.01485
2023-03-08T10:49:51.383Z,1546.9283
2023-03-08T10:54:52.802Z,1221.17195
2023-03-08T10:59:54.436Z,1638.45955
2023-03-08T11:04:56.161Z,1722.39035
2023-03-08T11:09:57.801Z,920.3293
2023-03-08T11:14:59.301Z,1774.02895
2023-03-08T11:20:00.915Z,1795.3473
2023-03-08T11:25:02.334Z,930.2442
2023-03-08T11:30:03.988Z,1911.0151
2023-03-08T11:35:05.561Z,1863.2481
2023-03-08T11:40:07.106Z,1984.822
2023-03-08T11:45:08.623Z,2021.3357
2023-03-08T11:50:10.205Z,2047.193
2023-03-08T11:55:11.664Z,1708.7434
2023-03-08T12:00:13.300Z,2133.0596
2023-03-08T12:05:14.906Z,2269.7014
2023-03-08T12:10:17.185Z,2233.61175
2023-03-08T12:15:19.468Z,1264.4269
2023-03-08T12:20:21.244Z,866.66545
2023-03-08T12:25:22.744Z,954.43355
2023-03-08T12:30:24.219Z,856.11195
2023-03-08T12:35:25.780Z,2218.1768
2023-03-08T12:40:27.281Z,875.6085
2023-03-08T12:45:28.947Z,1049.15005
2023-03-08T12:50:30.444Z,2339.1501
2023-03-08T12:55:32.098Z,2345.00895
2023-03-08T13:00:33.627Z,2406.25425
2023-03-08T13:05:35.092Z,2335.4537
2023-03-08T13:10:36.684Z,1111.49835
2023-03-08T13:15:38.136Z,2382.03615
2023-03-08T13:20:41.463Z,2411.6376
2023-03-08T13:25:43.444Z,2352.96905
2023-03-08T13:30:44.909Z,820.3838
2023-03-08T13:35:46.501Z,1581.6402
2023-03-08T13:40:48.126Z,2368.12455
2023-03-08T13:45:49.769Z,2329.17315
2023-03-08T13:50:51.298Z,893.56135
2023-03-08T13:55:52.763Z,1195.42545
2023-03-08T14:00:54.332Z,2333.0582
2023-03-08T14:05:55.849Z,2151.51115
2023-03-08T14:10:57.404Z,2345.1026
2023-03-08T14:15:58.933Z,1484.79605
2023-03-08T14:21:00.538Z,607.2082
2023-03-08T14:26:03.764Z,729.3526
2023-03-08T14:31:08.379Z,2197.13705
2023-03-08T14:36:11.533Z,631.97595
2023-03-08T14:41:14.045Z,1826.9444
2023-03-08T14:46:15.573Z,1991.4099
2023-03-08T14:51:17.213Z,1829.542
2023-03-08T14:56:18.697Z,1722.7241
2023-03-08T15:01:20.262Z,1605.653
2023-03-08T15:06:21.874Z,1503.9997
2023-03-08T15:11:23.462Z,1300.8224
2023-03-08T15:16:24.992Z,1213.53535
2023-03-08T15:21:26.507Z,1188.80375
2023-03-08T15:26:27.993Z,1054.6738
2023-03-08T15:31:29.599Z,917.92355
2023-03-08T15:36:31.145Z,739.9172
2023-03-08T15:41:32.611Z,583.93085
2023-03-08T15:46:34.184Z,438.40115
2023-03-08T15:51:35.751Z,324.9792
2023-03-08T15:56:37.545Z,246.67135
2023-03-08T16:01:39.100Z,193.2054
2023-03-08T16:06:40.846Z,156.28295
2023-03-08T16:11:42.560Z,113.92015
2023-03-08T16:16:45.908Z,91.1795
2023-03-08T16:21:47.592Z,70.4678
2023-03-08T16:26:49.062Z,42.39895
2023-03-08T16:31:50.616Z,26.98115
2023-03-08T16:36:52.251Z,13.463
2023-03-08T16:41:53.863Z,4.96115
2023-03-08T16:46:55.335Z,2.1925
2023-03-08T16:51:56.834Z,0.88885
2023-03-08T16:57:01.094Z,1.16185
2023-03-08T17:02:06.599Z,0.88715
2023-03-08T17:07:08.083Z,0.88715
2023-03-08T17:12:09.585Z,0
2023-03-08T17:17:11.214Z,0
2023-03-08T17:22:12.718Z,0
2023-03-08T17:27:14.202Z,0.88715
2023-03-08T17:32:15.847Z,0
2023-03-08T17:37:17.431Z,0.88715
2023-03-08T17:42:19.063Z,0
2023-03-08T17:47:20.742Z,0.88715
2023-03-08T17:52:22.245Z,0
2023-03-08T17:57:23.852Z,0.88715
2023-03-08T18:02:25.351Z,0
2023-03-08T18:07:27.085Z,0
2023-03-08T18:12:28.622Z,0
2023-03-08T18:17:30.217Z,0
2023-03-08T18:22:31.725Z,0
2023-03-08T18:27:34.467Z,0.88715
2023-03-08T18:32:36.444Z,0
2023-03-08T18:37:38.147Z,0
2023-03-08T18:42:39.636Z,0
2023-03-08T18:47:41.266Z,0
2023-03-08T18:52:42.804Z,0
2023-03-08T18:57:44.243Z,0
2023-03-08T19:02:45.799Z,0
2023-03-08T19:07:47.640Z,0
2023-03-08T19:12:49.178Z,0.88715
2023-03-08T19:17:50.788Z,0
2023-03-08T19:22:52.256Z,0
2023-03-08T19:27:53.893Z,0
2023-03-08T19:32:55.401Z,0.88715
2023-03-08T19:37:56.962Z,0
2023-03-08T19:42:58.468Z,0.88715
2023-03-08T19:48:00.153Z,0
2023-03-08T19:53:01.579Z,0
2023-03-08T19:58:03.165Z,0
2023-03-08T20:03:04.664Z,0
2023-03-08T20:08:06.194Z,0
2023-03-08T20:13:08.196Z,0
2023-03-08T20:18:10.087Z,0
2023-03-08T20:23:11.513Z,0.88715
2023-03-08T20:28:13.094Z,0
2023-03-08T20:33:14.574Z,0
2023-03-08T20:38:16.045Z,0
2023-03-08T20:43:17.541Z,0
2023-03-08T20:48:19.091Z,0
2023-03-08T20:53:20.599Z,0
2023-03-08T20:58:22.122Z,0
2023-03-08T21:03:23.604Z,0
2023-03-08T21:08:25.121Z,0
2023-03-08T21:13:27.394Z,0
2023-03-08T21:18:28.890Z,0
2023-03-08T21:23:30.341Z,0
2023-03-08T21:28:31.994Z,0
2023-03-08T21:33:33.611Z,0
2023-03-08T21:38:35.222Z,0
2023-03-08T21:43:37.397Z,0.88715
2023-03-08T21:48:38.906Z,0
2023-03-08T21:53:40.392Z,0
2023-03-08T21:58:41.925Z,0.88715
2023-03-08T22:03:43.580Z,0
2023-03-08T22:08:45.146Z,0.88715
2023-03-08T22:13:46.643Z,0
2023-03-08T22:18:48.343Z,0
2023-03-08T22:23:51.391Z,0.88715
2023-03-08T22:28:53.149Z,0
2023-03-08T22:33:54.784Z,0
2023-03-08T22:38:56.348Z,0
2023-03-08T22:43:57.850Z,0
2023-03-08T22:48:59.360Z,0
2023-03-08T22:54:00.802Z,0
2023-03-08T22:59:02.291Z,0
2023-03-08T23:04:04.059Z,0
2023-03-08T23:09:05.534Z,0.88715
2023-03-08T23:14:07.049Z,0
2023-03-08T23:19:08.496Z,0
2023-03-08T23:24:10.019Z,0
2023-03-08T23:29:11.510Z,0
2023-03-08T23:34:13.148Z,0
2023-03-08T23:39:14.637Z,0
2023-03-08T23:44:16.156Z,0
2023-03-08T23:49:17.668Z,0
2023-03-08T23:54:19.141Z,0
2023-03-08T23:59:20.608Z,0
